Latest Coastal Weather Observations for Bairnsdale

IDV60701

Issued at 5:25 pm EDT Friday 31 October 2014 (issued every 10 minutes, with the page automatically refreshed every 10 minutes)

About coastal observations | Map of coastal stations | Coastal observations for VIC | Marine services | Other Formats
Station Details ID: 085279 Name: BAIRNSDALE AIRPORT Lat: -37.88 Lon: 147.57 Height: 49.4 m
Data from the previous 72 hours. | See also: Recent months at Bairnsdale
Date/Time
EDT
Temp

°C
Wind Pressure Rain
since 9am
mm
Weather Cloud Vis
km
Sea
Height
m
Swell
Dir
 
Speed
knots
Gust
knots
hPa Trend Height
m
Period
s
Dir
31/05:00pm 24.2 ESE 7 9 1002.5 - 0.0 - - 10 - - - -
31/04:30pm 24.2 ESE 9 13 1002.6 - 0.0 - - 10 - - - -
31/04:00pm 24.5 ESE 8 11 1003.0 - 0.0 - - 10 - - - -
31/03:30pm 25.0 SE 9 11 1003.6 - 0.0 - - 10 - - - -
31/03:00pm 25.9 ESE 9 12 1004.1 - 0.0 - - 10 - - - -
31/02:30pm 25.3 ESE 7 9 1004.6 - 0.0 - - 10 - - - -
31/02:00pm 24.1 ESE 7 9 1005.2 - 0.0 - - 10 - - - -
31/01:30pm 24.4 ENE 8 10 1005.8 - 0.0 - - 10 - - - -
31/01:00pm 23.6 ENE 6 9 1006.3 - 0.0 - - 10 - - - -
31/12:30pm 23.4 E 5 7 1007.1 - 0.0 - - 10 - - - -
31/12:00pm 21.6 E 5 6 1007.8 - 0.0 - - 10 - - - -
31/11:30am 20.7 E 5 7 1008.3 - 0.0 - - 10 - - - -
31/11:00am 19.9 ENE 6 8 1008.8 - 0.0 - - 10 - - - -
31/10:30am 19.2 ENE 6 8 1009.3 - 0.0 - - 10 - - - -
31/10:00am 18.1 ENE 6 7 1009.9 - 0.0 - - 10 - - - -
31/09:30am 16.3 NE 5 7 1010.3 - 0.0 - - 10 - - - -
31/09:00am 15.7 NNE 5 6 1010.7 - 0.0 - - 10 - - - -
31/08:30am 14.3 NNW 4 6 1011.0 - 0.0 - - 10 - - - -
31/08:00am 11.8 NW 5 6 1011.1 - 0.0 - - 10 - - - -
31/07:30am 10.6 NNW 4 5 1011.1 - 0.0 - - - - - - -
31/07:00am 9.2 CALM 0 0 1011.3 - 0.0 - - - - - - -
31/06:30am 7.6 W 2 3 1011.5 - 0.0 - - 1 - - - -
31/06:00am 8.7 N 3 4 1011.0 - 0.0 - - 1 - - - -
31/05:51am 8.9 N 3 4 1011.0 - 0.0 - - 5 - - - -
31/05:30am 9.2 NNE 3 3 1011.1 - 0.0 - - 10 - - - -
31/05:00am 10.6 NE 5 6 1011.0 - 0.0 - - 10 - - - -
31/04:30am 11.2 ENE 6 8 1010.9 - 0.0 - - 10 - - - -
31/04:00am 11.7 ENE 7 8 1011.3 - 0.0 - - 10 - - - -
31/03:30am 12.3 ENE 6 8 1011.7 - 0.0 - Partly cloudy 10 - - - -
31/03:00am 12.7 ENE 6 7 1012.2 - 0.0 - Mostly cloudy 10 - - - -
31/02:30am 12.9 ENE 6 7 1012.3 - 0.0 - Cloudy 10 - - - -
31/02:00am 13.2 E 4 5 1012.8 - 0.0 - Cloudy 10 - - - -
31/01:30am 13.6 ENE 6 8 1013.2 - 0.0 - Cloudy 10 - - - -
31/01:00am 13.6 E 6 7 1013.5 - 0.0 - Cloudy 10 - - - -
31/12:30am 13.5 ENE 4 6 1013.9 - 0.0 - Cloudy 10 - - - -
31/12:00am 13.5 ENE 5 10 1013.8 - 0.0 - Cloudy 10 - - - -
 
Date/Time
EDT
Temp

°C
Wind Pressure Rain
since 9am
mm
Weather Cloud Vis
km
Sea
Height
m
Swell
Dir
 
Speed
knots
Gust
knots
hPa Trend Height
m
Period
s
Dir
30/11:30pm 13.5 NE 5 6 1014.1 - 0.0 - Cloudy 10 - - - -
30/11:00pm 13.6 ENE 5 7 1014.2 - 0.0 - Cloudy 10 - - - -
30/10:30pm 13.2 ENE 6 7 1014.4 - 0.0 - Cloudy 10 - - - -
30/10:00pm 13.1 ENE 6 8 1014.6 - 0.0 - Cloudy 10 - - - -
30/09:30pm 12.7 ENE 7 9 1014.6 - 0.0 - Partly cloudy 10 - - - -
30/09:00pm 12.3 E 5 6 1014.7 - 0.0 - - 10 - - - -
30/08:30pm 13.0 E 5 7 1014.5 - 0.0 - - 10 - - - -
30/08:00pm 13.2 E 6 7 1014.4 - 0.0 - - 10 - - - -
30/07:30pm 14.4 E 6 7 1014.2 - 0.0 - - 10 - - - -
30/07:00pm 14.9 ESE 6 7 1014.0 - 0.0 - Partly cloudy 10 - - - -
30/06:30pm 15.3 ESE 7 10 1013.9 - 0.0 - Partly cloudy 10 - - - -
30/06:00pm 15.7 SE 9 12 1013.6 - 0.0 - Mostly cloudy 10 - - - -
30/05:30pm 16.0 SE 9 13 1013.4 - 0.0 - Partly cloudy 10 - - - -
30/05:00pm 17.1 SE 12 16 1012.8 - 0.0 - Partly cloudy 10 - - - -
30/04:30pm 17.9 SSE 10 14 1012.5 - 0.0 - - 10 - - - -
30/04:00pm 17.9 SE 11 14 1012.4 - 0.0 - - 10 - - - -
30/03:30pm 18.3 SE 11 16 1012.2 - 0.0 - - 10 - - - -
30/03:00pm 19.0 SSE 11 15 1012.2 - 0.0 - - 10 - - - -
30/02:30pm 18.9 SSE 12 16 1012.4 - 0.0 - - 10 - - - -
30/02:00pm 18.9 SE 14 19 1012.6 - 0.0 - - 10 - - - -
30/01:30pm 21.0 SSW 9 15 1012.5 - 0.0 - - 10 - - - -
30/01:00pm 20.6 SW 9 13 1012.6 - 0.0 - - 10 - - - -
30/12:30pm 19.4 SSW 10 16 1013.1 - 0.0 - Partly cloudy 10 - - - -
30/12:00pm 18.8 SSW 10 15 1013.4 - 0.0 - - 10 - - - -
30/11:30am 17.9 SW 9 12 1013.8 - 0.0 - Partly cloudy 10 - - - -
30/11:00am 17.9 SW 8 11 1014.2 - 0.0 - Partly cloudy 10 - - - -
30/10:30am 18.2 WNW 5 8 1014.2 - 0.0 - - 10 - - - -
30/10:00am 17.5 W 6 10 1014.3 - 0.0 - Partly cloudy 10 - - - -
30/09:30am 16.8 WSW 6 9 1014.6 - 0.0 - - 10 - - - -
30/09:00am 15.1 WSW 5 8 1014.9 - 0.0 - - 10 - - - -
30/08:30am 13.0 W 5 8 1015.0 - 0.0 - - 10 - - - -
30/08:00am 11.3 WNW 7 9 1014.7 - 0.0 - - - - - - -
30/07:30am 10.5 NW 7 9 1014.4 - 0.0 - - 10 - - - -
30/07:00am 9.5 NW 6 8 1014.4 - 0.0 - - - - - - -
30/06:30am 8.9 WNW 7 9 1014.4 - 0.0 - - - - - - -
30/06:00am 8.6 WNW 7 9 1014.3 - 0.0 - - - - - - -
30/05:30am 8.1 NW 6 7 1014.0 - 0.0 - - - - - - -
30/05:00am 8.0 WNW 7 8 1014.1 - 0.0 - - - - - - -
30/04:30am 8.4 NNW 6 6 1014.0 - 0.0 - - - - - - -
30/04:00am 8.8 NNW 6 7 1014.1 - 0.0 - Partly cloudy - - - - -
30/03:30am 9.6 N 6 7 1014.3 - 0.0 - Cloudy - - - - -
30/03:00am 9.6 NW 5 6 1014.6 - 0.0 - Cloudy - - - - -
30/02:30am 9.9 NNW 5 6 1014.9 - 0.0 - Cloudy - - - - -
30/02:00am 9.6 CALM 0 0 1015.1 - 0.0 - Cloudy - - - - -
30/01:30am 7.4 CALM 0 0 1015.2 - 0.0 - Partly cloudy 10 - - - -
30/01:00am 7.7 CALM 0 0 1015.5 - 0.0 - - 8 - - - -
30/12:30am 9.2 ENE 1 3 1015.8 - 0.0 - - 10 - - - -
30/12:00am 10.5 NE 5 6 1015.9 - 0.0 - - 10 - - - -
 
Date/Time
EDT
Temp

°C
Wind Pressure Rain
since 9am
mm
Weather Cloud Vis
km
Sea
Height
m
Swell
Dir
 
Speed
knots
Gust
knots
hPa Trend Height
m
Period
s
Dir
29/11:30pm 10.7 NE 5 5 1016.2 - 0.0 - - 10 - - - -
29/11:00pm 11.1 NNE 5 6 1016.3 - 0.0 - - 10 - - - -
29/10:30pm 11.0 NE 5 5 1016.5 - 0.0 - - 10 - - - -
29/10:00pm 11.1 NE 5 6 1016.5 - 0.0 - - 10 - - - -
29/09:30pm 11.3 NE 5 7 1016.5 - 0.0 - - 10 - - - -
29/09:00pm 11.5 NE 5 7 1016.5 - 0.0 - Mostly clear 10 - - - -
29/08:30pm 12.6 ENE 6 8 1016.3 - 0.0 - Partly cloudy 10 - - - -
29/08:00pm 12.8 E 5 6 1016.2 - 0.0 - - 10 - - - -
29/07:30pm 13.8 ESE 5 7 1015.7 - 0.0 - - 10 - - - -
29/07:00pm 15.2 SE 7 9 1015.4 - 0.0 - - 10 - - - -
29/06:30pm 15.6 SE 9 11 1015.0 - 0.0 - - 10 - - - -
29/06:00pm 16.3 SE 11 14 1014.8 - 0.0 - - 10 - - - -
29/05:30pm 16.7 ESE 10 14 1014.6 - 0.0 - - 10 - - - -
29/05:00pm 17.6 SSE 10 14 1014.3 - 0.0 - - 10 - - - -
29/04:30pm 18.4 SE 11 15 1014.0 - 0.0 - - 10 - - - -
29/04:00pm 18.5 SE 11 15 1014.1 - 0.0 - - 10 - - - -
29/03:30pm 20.0 S 10 15 1014.2 - 0.0 - - 10 - - - -
29/03:00pm 19.5 SSW 10 14 1014.5 - 0.0 - - 10 - - - -
29/02:30pm 19.2 SSW 10 14 1015.0 - 0.0 - - 10 - - - -
29/02:00pm 19.5 S 6 10 1015.3 - 0.0 - - 10 - - - -
29/01:30pm 19.2 SSW 4 7 1015.7 - 0.0 - - 10 - - - -
29/01:00pm 18.8 WNW 6 10 1015.9 - 0.0 - - 10 - - - -
29/12:30pm 18.1 WNW 6 9 1016.4 - 0.0 - - 10 - - - -
29/12:00pm 18.0 W 7 11 1016.9 - 0.0 - Mostly clear 10 - - - -
29/11:30am 16.9 SW 5 10 1017.3 - 0.0 - Partly cloudy 10 - - - -
29/11:00am 16.5 W 11 15 1017.7 - 0.0 - Partly cloudy 10 - - - -
29/10:30am 15.8 W 9 13 1018.1 - 0.0 - Cloudy 10 - - - -
29/10:00am 15.1 WSW 12 17 1018.0 - 0.0 - Partly cloudy 10 - - - -
29/09:30am 14.9 W 12 17 1018.0 - 0.0 - - 10 - - - -
29/09:00am 14.5 WNW 8 11 1018.0 - 0.2 - - 10 - - - -
29/08:30am 13.2 W 6 8 1017.9 - 0.2 - Partly cloudy 10 - - - -
29/08:00am 12.3 WNW 5 6 1017.9 - 0.2 - Cloudy 10 - - - -
29/07:30am 11.3 NNW 6 8 1017.6 - 0.2 - Cloudy 10 - - - -
29/07:00am 10.8 WNW 6 8 1017.3 - 0.2 - Cloudy 10 - - - -
29/06:30am 10.9 WNW 6 8 1017.1 - 0.2 - Cloudy 10 - - - -
29/06:00am 11.0 WSW 8 12 1016.9 - 0.2 - Cloudy 10 - - - -
29/05:30am 11.3 WSW 10 15 1016.9 - 0.2 - Cloudy 10 - - - -
29/05:00am 10.9 WSW 9 13 1016.5 - 0.2 - Partly cloudy 10 - - - -
29/04:30am 11.0 WSW 9 13 1016.1 - 0.2 - Partly cloudy 10 - - - -
29/04:00am 11.9 W 11 16 1016.0 - 0.2 - Cloudy 10 - - - -
29/03:30am 11.2 W 10 13 1015.8 - 0.2 - Partly cloudy 10 - - - -
29/03:00am 10.8 WSW 13 18 1015.7 - 0.2 - - 10 - - - -
29/02:30am 10.8 WSW 13 21 1015.5 - 0.2 - - 10 - - - -
29/02:00am 10.9 WSW 14 20 1015.4 - 0.2 - - 10 - - - -
29/01:30am 10.9 WSW 16 22 1015.4 - 0.2 - - 10 - - - -
29/01:00am 11.3 WSW 16 24 1015.5 - 0.2 - - 10 - - - -
29/12:30am 11.6 WSW 15 20 1015.3 - 0.2 - Partly cloudy 10 - - - -
29/12:00am 11.3 WSW 12 17 1015.3 - 0.2 - Mostly clear 10 - - - -
 
Date/Time
EDT
Temp

°C
Wind Pressure Rain
since 9am
mm
Weather Cloud Vis
km
Sea
Height
m
Swell
Dir
 
Speed
knots
Gust
knots
hPa Trend Height
m
Period
s
Dir
28/11:30pm 11.2 WSW 11 15 1014.7 - 0.2 - Partly cloudy 10 - - - -
28/11:00pm 11.5 WSW 15 19 1014.5 - 0.2 - - 10 - - - -
28/10:30pm 11.6 WSW 13 18 1014.4 - 0.2 - Partly cloudy 10 - - - -
28/10:00pm 12.1 WSW 16 22 1014.2 - 0.2 - Partly cloudy 10 - - - -
28/09:30pm 12.2 WSW 16 23 1014.0 - 0.2 - - 10 - - - -
28/09:00pm 12.5 WSW 15 23 1013.6 - 0.2 - Mostly clear 10 - - - -
28/08:30pm 13.0 WSW 15 20 1013.1 - 0.2 - - 10 - - - -
28/08:00pm 13.4 WSW 16 23 1012.5 - 0.2 - - 10 - - - -
28/07:30pm 14.3 WSW 19 29 1011.7 - 0.2 - - 10 - - - -
28/07:22pm 14.6 WSW 17 27 1011.3 - 0.2 - - 10 - - - -
28/07:00pm 15.5 WSW 18 25 1010.9 - 0.2 - Partly cloudy 10 - - - -
28/06:30pm 17.1 W 19 29 1010.4 - 0.2 - Partly cloudy 10 - - - -
28/06:01pm 17.7 WSW 21 31 1010.1 - 0.2 - Partly cloudy 10 - - - -
28/06:00pm 17.7 WSW 22 31 1010.0 - 0.2 - Mostly clear 10 - - - -
28/05:30pm 18.7 WSW 18 28 1009.3 - 0.2 - Partly cloudy 10 - - - -

Other Formats:

Comma delimited format used in spreadsheet applications
http://www.bom.gov.au/fwo/IDV60701/IDV60701.94912.axf

JavaScript Object Notation format (JSON) in row-major order
http://www.bom.gov.au/fwo/IDV60701/IDV60701.94912.json